»·PEaware :: N22ST KPHX-KTUS

N22ST :: KPHX-KTUS

FLIGHT INFORMATION

Flight Status: Arrived
Operator: Privately registered:
United States
More flights under this callsign
Pilot: Liam T. (43559)
Aircraft: CIRRUS SR-22
(SR22)
More flights by this aircraft type
Origin: KPHX Phoenix Sky Harbor Intl
United States
Destination: KTUS Tucson Intl
United States
More flights between these airports :: More routes between these airports
Route:
File this flight plan on PilotEdge
Remarks:
Altitude:
(Current/Filed)
7,500ft
Speed:
(Current/Filed)
0kts
Departed: 26-Oct-23 02:43 PM
Arrived: 26-Oct-23 03:24 PM
Distance/Time
Traveled:
95nm/0:41
Distance/Time
To Go:
Arrived

Flight Plot

Page will automatically refresh every two minutes.

Flight plan parsing failed; only flown route is shown


Map Options




Map Legend


Flown Route
Filed Route
Departure Airport
Arrival Airport
Navaid (VOR, NDB)
Fix

Horizontal Profiles

Position Reports

Time Latitude Longitude Heading Altitude Ground
Speed
26-Oct-23 14:22 33.426914 -112.017670 89 1125ft 0kts
26-Oct-23 14:23 33.426914 -112.017670 89 1125ft 0kts
26-Oct-23 14:24 33.426914 -112.017670 89 1125ft 0kts
26-Oct-23 14:25 33.426914 -112.017670 89 1125ft 0kts
26-Oct-23 14:26 33.426914 -112.017670 89 1125ft 0kts
26-Oct-23 14:27 33.426914 -112.017670 89 1125ft 0kts
26-Oct-23 14:28 33.426914 -112.017670 89 1125ft 0kts
26-Oct-23 14:29 33.426914 -112.017670 89 1125ft 0kts
26-Oct-23 14:30 33.426914 -112.017670 89 1125ft 0kts
26-Oct-23 14:31 33.426914 -112.017670 89 1125ft 0kts
26-Oct-23 14:32 33.426915 -112.017649 82 1125ft 1kts
26-Oct-23 14:33 33.427765 -112.023470 268 1123ft 35kts
26-Oct-23 14:34 33.427960 -112.026928 333 1120ft 0kts
26-Oct-23 14:35 33.427960 -112.026928 333 1120ft 0kts
26-Oct-23 14:36 33.427960 -112.026928 333 1120ft 0kts
26-Oct-23 14:37 33.427960 -112.026928 333 1120ft 0kts
26-Oct-23 14:38 33.427960 -112.026928 333 1123ft 0kts
26-Oct-23 14:39 33.427960 -112.026928 333 1123ft 0kts
26-Oct-23 14:40 33.427960 -112.026928 333 1123ft 0kts
26-Oct-23 14:41 33.427960 -112.026928 333 1123ft 0kts
26-Oct-23 14:42 33.428856 -112.023631 89 1119ft 69kts
26-Oct-23 14:43 33.421452 -111.994688 156 2229ft 114kts
26-Oct-23 14:44 33.388080 -111.976798 160 3306ft 139kts
26-Oct-23 14:45 33.354311 -111.955668 155 4286ft 138kts
26-Oct-23 14:46 33.315894 -111.931776 155 4417ft 168kts
26-Oct-23 14:47 33.277034 -111.946111 215 4411ft 150kts
26-Oct-23 14:48 33.237849 -111.952735 177 4402ft 144kts
26-Oct-23 14:49 33.196488 -111.947687 176 4989ft 158kts
26-Oct-23 14:50 33.152169 -111.942123 175 5498ft 164kts
26-Oct-23 14:51 33.106164 -111.936337 175 5919ft 164kts
26-Oct-23 14:52 33.061084 -111.930675 176 6512ft 162kts
26-Oct-23 14:53 33.016228 -111.925047 176 7084ft 162kts
26-Oct-23 14:54 32.971118 -111.919414 176 7516ft 165kts
26-Oct-23 14:55 32.926044 -111.913750 176 7494ft 161kts
26-Oct-23 14:56 32.881719 -111.908179 173 7482ft 159kts
26-Oct-23 14:57 32.847775 -111.873657 143 7494ft 163kts
26-Oct-23 14:58 32.811877 -111.840064 144 7490ft 164kts
26-Oct-23 14:59 32.775338 -111.806213 144 7485ft 166kts
26-Oct-23 15:00 32.738938 -111.772501 144 7483ft 167kts
26-Oct-23 15:01 32.701830 -111.738164 144 7474ft 169kts
26-Oct-23 15:02 32.664894 -111.703984 144 7453ft 166kts
26-Oct-23 15:03 32.628276 -111.670163 144 7452ft 167kts
26-Oct-23 15:04 32.591557 -111.636268 144 7468ft 167kts
26-Oct-23 15:05 32.554814 -111.602374 144 7476ft 166kts
26-Oct-23 15:06 32.518202 -111.568633 144 7484ft 167kts
26-Oct-23 15:07 32.481220 -111.534576 144 7494ft 168kts
26-Oct-23 15:08 32.444369 -111.500672 144 7500ft 168kts
26-Oct-23 15:09 32.407414 -111.466699 144 7499ft 169kts
26-Oct-23 15:10 32.370532 -111.432425 134 7494ft 168kts
26-Oct-23 15:11 32.365268 -111.377655 92 7484ft 170kts
26-Oct-23 15:12 32.354658 -111.324370 135 7496ft 168kts
26-Oct-23 15:13 32.320745 -111.286152 139 7501ft 167kts
26-Oct-23 15:14 32.285725 -111.247857 139 6993ft 174kts
26-Oct-23 15:15 32.250193 -111.208982 138 6442ft 174kts
26-Oct-23 15:16 32.224181 -111.160470 119 5808ft 177kts
26-Oct-23 15:17 32.200849 -111.111213 120 5044ft 163kts
26-Oct-23 15:18 32.174843 -111.076739 129 4190ft 131kts
26-Oct-23 15:19 32.161589 -111.042082 90 3880ft 120kts
26-Oct-23 15:20 32.164728 -111.004618 87 3819ft 119kts
26-Oct-23 15:21 32.150031 -110.979258 132 3629ft 80kts
26-Oct-23 15:22 32.133716 -110.960003 134 3126ft 88kts
26-Oct-23 15:23 32.119686 -110.943479 122 2590ft 11kts
26-Oct-23 15:24 32.120195 -110.942902 43 2587ft 0kts
26-Oct-23 15:25 32.120195 -110.942902 43 2587ft 0kts
26-Oct-23 15:26 32.120815 -110.942488 330 2588ft 11kts
26-Oct-23 15:27 32.125059 -110.947159 10 2569ft 16kts
26-Oct-23 15:28 32.125553 -110.944777 134 2572ft 4kts
26-Oct-23 15:29 32.125124 -110.944395 133 2573ft 0kts
26-Oct-23 15:30 32.125124 -110.944395 133 2573ft 0kts
26-Oct-23 15:31 32.125124 -110.944395 133 2573ft 0kts
26-Oct-23 15:32 32.125124 -110.944395 133 2573ft 0kts

Navigation Log

Ident Type
Flight plan parsing failed, navigation log unavailable